CheckWX is a tool to help pilots better visualize weather data.  It is not intended as a substitute for an official pre-flight weather briefing.

03:48:24 UTC

KMLU TAF
Monroe Regional Airport
Monroe, Louisiana, USA
KMLU 282324Z 2900/2924 VRB03KT P6SM SKC FM290600 23003KT P6SM SKC FM291500 26005KT P6SM SCT250 FM292000 23006KT P6SM BKN250

Feb-29@
00:00 UTC

Feb-29 @ 00:00 UTC

Feb-29@
06:00 UTC

Feb-29 @ 06:00 UTC

KMLU 282324Z 2900/2924 VRB03KT P6SM SKC
Wind
  • Variable at 3 KTS
Cloud Levels
  • Clear skies

Feb-29@
06:00 UTC

Feb-29 @ 06:00 UTC

Feb-29@
15:00 UTC

Feb-29 @ 15:00 UTC

FM290600 23003KT P6SM SKC

From

From Standard forecast or significant change

Wind
  • 230° at 3 KTS
Cloud Levels
  • Clear skies

Feb-29@
15:00 UTC

Feb-29 @ 15:00 UTC

Feb-29@
20:00 UTC

Feb-29 @ 20:00 UTC

FM291500 26005KT P6SM SCT250

From

From Standard forecast or significant change

Wind
  • 260° at 5 KTS
Cloud Levels
  • Scattered at 25,000' AGL

Feb-29@
20:00 UTC

Feb-29 @ 20:00 UTC

Mar-1@
00:00 UTC

Mar-1 @ 00:00 UTC

FM292000 23006KT P6SM BKN250

From

From Standard forecast or significant change

Wind
  • 230° at 6 KTS
Cloud Levels
  • Broken at 25,000' AGL